Terminal Aerodrome Forecast
Issued by NWS Portland, ME

Home | Current Version | Previous Version | Text Only | Print | Product List | Glossary On
Versions: 1 2 3 4 5 6 7 8 9 10 11 12 13 14 15
000
FTUS41 KGYX 021122
TAFPWM
TAF
KPWM 021122Z 0212/0312 29008KT P6SM BKN060
     FM021500 30015G25KT P6SM SCT060
     FM030400 31010KT P6SM SKC=

USA.gov is the U.S. government's official web portal to all federal, state and local government web resources and services.